Time;durP1;ratioP1;P1;durP2;ratioP2;P2;SDS_P1;SDS_P2;PMS_P1;PMS_P2;Temp;Humidity;BMP_temperature;BMP_pressure;BME280_temperature;BME280_humidity;BME280_pressure;Samples;Min_cycle;Max_cycle;Signal;HPM_P1;HPM_P2
2022/03/20 00:02:12;;;;;;;;;;;3.00;99.90;;;;;;5124628;28;20189;-71
2022/03/20 00:04:39;;;;;;;;;;;3.00;99.90;;;;;;5122422;28;19931;-70
2022/03/20 00:07:11;;;;;;;;;;;3.00;99.90;;;;;;5130035;28;20219;-71
2022/03/20 00:09:37;;;;;;;;;;;3.10;99.90;;;;;;5129027;28;19928;-72
2022/03/20 00:12:04;;;;;;;;;;;3.10;99.90;;;;;;5129823;28;19979;-70
2022/03/20 00:14:31;;;;;;;;;;;3.00;99.90;;;;;;5123882;28;19920;-71
2022/03/20 00:16:59;;;;;;;;;;;3.00;99.90;;;;;;5124900;28;19965;-71
2022/03/20 00:19:26;;;;;;;;;;;3.00;99.90;;;;;;5124044;28;20218;-73
2022/03/20 00:21:53;;;;;;;;;;;3.00;99.90;;;;;;5125516;28;19920;-73
2022/03/20 00:24:20;;;;;;;;;;;3.00;99.90;;;;;;5124517;28;19951;-71
2022/03/20 00:26:48;;;;;;;;;;;3.00;99.90;;;;;;5125336;28;20178;-71
2022/03/20 00:29:15;;;;;;;;;;;3.00;99.90;;;;;;5124275;28;19920;-70
2022/03/20 00:31:41;;;;;;;;;;;3.00;99.90;;;;;;5124603;28;20046;-71
2022/03/20 00:34:09;;;;;;;;;;;3.00;99.90;;;;;;5123791;28;20229;-70
2022/03/20 00:36:36;;;;;;;;;;;3.10;99.90;;;;;;5124467;28;19927;-70
2022/03/20 00:39:03;;;;;;;;;;;3.10;99.90;;;;;;5124302;28;19919;-70
2022/03/20 00:41:29;;;;;;;;;;;3.00;99.90;;;;;;5124349;28;19920;-70
2022/03/20 00:43:56;;;;;;;;;;;3.10;99.90;;;;;;5123776;28;19934;-70
2022/03/20 00:46:23;;;;;;;;;;;3.00;99.90;;;;;;5124419;28;19920;-70
2022/03/20 00:48:49;;;;;;;;;;;3.10;99.90;;;;;;5124204;28;19919;-70
2022/03/20 00:51:17;;;;;;;;;;;3.10;99.90;;;;;;5121638;28;19920;-70
2022/03/20 00:53:44;;;;;;;;;;;3.10;99.90;;;;;;5123283;28;19920;-71
2022/03/20 00:56:12;;;;;;;;;;;3.10;99.90;;;;;;5124019;28;19990;-70
2022/03/20 00:58:39;;;;;;;;;;;3.10;99.90;;;;;;5123662;28;19920;-70
2022/03/20 01:01:06;;;;;;;;;;;3.10;99.90;;;;;;5126075;28;19920;-70
2022/03/20 01:03:32;;;;;;;;;;;3.20;99.90;;;;;;5127353;28;19973;-70
2022/03/20 01:05:59;;;;;;;;;;;3.20;99.90;;;;;;5123363;28;19926;-70
2022/03/20 01:08:27;;;;;;;;;;;3.20;99.90;;;;;;5114167;28;19926;-70
2022/03/20 01:10:55;;;;;;;;;;;3.20;99.90;;;;;;5117256;28;19934;-71
2022/03/20 01:13:23;;;;;;;;;;;3.20;99.90;;;;;;5111216;28;19920;-70
2022/03/20 01:15:50;;;;;;;;;;;3.20;99.90;;;;;;5116568;28;20261;-70
2022/03/20 01:18:16;;;;;;;;;;;3.20;99.90;;;;;;5112804;28;20154;-70
2022/03/20 01:20:43;;;;;;;;;;;3.20;99.90;;;;;;5115048;28;19926;-70
2022/03/20 01:23:09;;;;;;;;;;;3.20;99.90;;;;;;5123166;28;19934;-70
2022/03/20 01:25:38;;;;;;;;;;;3.20;99.90;;;;;;5123257;28;19928;-70
2022/03/20 01:28:05;;;;;;;;;;;3.10;99.90;;;;;;5118695;28;19932;-70
2022/03/20 01:30:31;;;;;;;;;;;3.10;99.90;;;;;;5115133;28;19920;-70
2022/03/20 01:33:02;;;;;;;;;;;3.20;99.90;;;;;;5122758;28;19919;-70
2022/03/20 01:35:28;;;;;;;;;;;3.20;99.90;;;;;;5113079;28;19923;-70
2022/03/20 01:37:55;;;;;;;;;;;3.20;99.90;;;;;;5123391;28;20207;-70
2022/03/20 01:40:23;;;;;;;;;;;3.10;99.90;;;;;;5120704;28;19983;-71
2022/03/20 01:43:07;;;;;;;;;;;3.10;99.90;;;;;;5113693;28;19947;-70
2022/03/20 01:45:35;;;;;;;;;;;3.20;99.90;;;;;;5122128;28;19920;-70
2022/03/20 01:48:03;;;;;;;;;;;3.20;99.90;;;;;;5123588;28;19919;-70
2022/03/20 01:50:40;;;;;;;;;;;3.20;99.90;;;;;;5123128;28;19927;-71
2022/03/20 01:53:07;;;;;;;;;;;3.10;99.90;;;;;;5127353;27;19979;-70
2022/03/20 01:55:34;;;;;;;;;;;3.10;99.90;;;;;;5124328;28;19927;-70
2022/03/20 01:58:14;;;;;;;;;;;3.10;99.90;;;;;;5123218;28;19927;-71
2022/03/20 02:00:50;;;;;;;;;;;3.10;99.90;;;;;;5120728;28;19926;-70
2022/03/20 02:03:17;;;;;;;;;;;3.10;99.90;;;;;;5121309;28;19920;-70
2022/03/20 02:05:43;;;;;;;;;;;3.10;99.90;;;;;;5122457;28;19926;-70
2022/03/20 02:08:11;;;;;;;;;;;3.00;99.90;;;;;;5122688;28;19926;-71
2022/03/20 02:10:38;;;;;;;;;;;3.00;99.90;;;;;;5123291;28;19920;-70
2022/03/20 02:13:05;;;;;;;;;;;3.00;99.90;;;;;;5122685;28;19920;-70
2022/03/20 02:15:33;;;;;;;;;;;3.00;99.90;;;;;;5122755;28;20261;-71
2022/03/20 02:18:00;;;;;;;;;;;3.00;99.90;;;;;;5123404;28;19926;-70
2022/03/20 02:20:29;;;;;;;;;;;3.00;99.90;;;;;;5122582;28;19957;-70
2022/03/20 02:22:57;;;;;;;;;;;3.00;99.90;;;;;;5127684;28;19984;-70
2022/03/20 02:25:24;;;;;;;;;;;3.00;99.90;;;;;;5122585;28;19920;-71
2022/03/20 02:27:50;;;;;;;;;;;3.00;99.90;;;;;;5122790;28;19920;-70
2022/03/20 02:30:18;;;;;;;;;;;3.00;99.90;;;;;;5122829;28;20207;-71
2022/03/20 02:32:45;;;;;;;;;;;3.10;99.90;;;;;;5122377;28;19928;-70
2022/03/20 02:35:14;;;;;;;;;;;3.10;99.90;;;;;;5122916;28;20222;-71
2022/03/20 02:37:42;;;;;;;;;;;3.10;99.90;;;;;;5123029;28;19924;-70
2022/03/20 02:40:11;;;;;;;;;;;3.10;99.90;;;;;;5125783;28;20229;-71
2022/03/20 02:42:40;;;;;;;;;;;3.10;99.90;;;;;;5126632;28;19927;-70
2022/03/20 02:45:07;;;;;;;;;;;3.10;99.90;;;;;;5118763;28;19965;-70
2022/03/20 02:47:35;;;;;;;;;;;3.00;99.90;;;;;;5111806;28;19926;-70
2022/03/20 02:50:06;;;;;;;;;;;3.00;99.90;;;;;;5126786;28;20151;-70
2022/03/20 02:52:42;;;;;;;;;;;3.00;99.90;;;;;;5126162;28;19920;-70
2022/03/20 02:55:10;;;;;;;;;;;3.00;99.90;;;;;;5100229;28;19928;-71
2022/03/20 02:57:37;;;;;;;;;;;3.00;99.90;;;;;;5106461;28;19927;-71
2022/03/20 03:00:06;;;;;;;;;;;3.00;99.90;;;;;;5105714;28;20215;-71
2022/03/20 03:02:35;;;;;;;;;;;2.90;99.90;;;;;;5105688;28;19942;-71
2022/03/20 03:05:01;;;;;;;;;;;2.90;99.90;;;;;;5105860;28;19920;-71
2022/03/20 03:07:28;;;;;;;;;;;2.90;99.90;;;;;;5105306;28;19942;-71
2022/03/20 03:12:40;;;;;;;;;;;2.80;99.90;;;;;;5105416;28;19999;-71
2022/03/20 03:15:26;;;;;;;;;;;2.80;99.90;;;;;;5105102;28;19927;-71
2022/03/20 03:17:54;;;;;;;;;;;2.80;99.90;;;;;;5099721;28;19920;-71
2022/03/20 03:20:21;;;;;;;;;;;2.80;99.90;;;;;;5105216;28;19932;-71
2022/03/20 03:22:47;;;;;;;;;;;2.80;99.90;;;;;;5104371;28;20187;-71
2022/03/20 03:25:14;;;;;;;;;;;2.80;99.90;;;;;;5105430;28;19927;-70
2022/03/20 03:27:48;;;;;;;;;;;2.80;99.90;;;;;;5104220;28;19931;-71
2022/03/20 03:30:15;;;;;;;;;;;2.70;99.90;;;;;;5104805;28;19943;-71
2022/03/20 03:32:43;;;;;;;;;;;2.70;99.90;;;;;;5097213;28;19924;-71
2022/03/20 03:37:54;;;;;;;;;;;2.60;99.90;;;;;;5105122;28;20230;-71
2022/03/20 03:40:25;;;;;;;;;;;2.60;99.90;;;;;;5101690;28;19935;-70
2022/03/20 03:42:56;;;;;;;;;;;2.60;99.90;;;;;;5096499;28;19920;-70
2022/03/20 03:45:24;;;;;;;;;;;2.50;99.90;;;;;;5100250;28;19927;-71
2022/03/20 03:47:58;;;;;;;;;;;2.50;99.90;;;;;;5105555;28;20116;-71
2022/03/20 03:50:25;;;;;;;;;;;2.50;99.90;;;;;;5104897;28;19920;-70
2022/03/20 03:52:52;;;;;;;;;;;2.50;99.90;;;;;;5107346;28;19926;-71
2022/03/20 03:55:27;;;;;;;;;;;2.50;99.90;;;;;;5124884;28;19920;-71
2022/03/20 03:57:55;;;;;;;;;;;2.50;99.90;;;;;;5116923;28;19927;-71
2022/03/20 04:00:24;;;;;;;;;;;2.60;99.90;;;;;;5119923;28;19972;-71
2022/03/20 04:02:51;;;;;;;;;;;2.60;99.90;;;;;;5125000;28;20246;-71
2022/03/20 04:05:18;;;;;;;;;;;2.60;99.90;;;;;;5115495;28;19920;-71
2022/03/20 04:07:47;;;;;;;;;;;2.60;99.90;;;;;;5124456;28;19927;-71
2022/03/20 04:10:16;;;;;;;;;;;2.60;99.90;;;;;;5124974;28;20289;-71
2022/03/20 04:12:44;;;;;;;;;;;2.60;99.90;;;;;;5121127;28;20023;-71
2022/03/20 04:15:12;;;;;;;;;;;2.50;99.90;;;;;;5124952;28;20111;-71
2022/03/20 04:17:40;;;;;;;;;;;2.50;99.90;;;;;;5125068;28;20111;-71
2022/03/20 04:20:08;;;;;;;;;;;2.50;99.90;;;;;;5124754;28;19919;-71
2022/03/20 04:22:35;;;;;;;;;;;2.40;99.90;;;;;;5114206;28;19927;-71
2022/03/20 04:25:02;;;;;;;;;;;2.40;99.90;;;;;;5124496;28;19920;-71
2022/03/20 04:27:30;;;;;;;;;;;2.30;99.90;;;;;;5124279;28;20008;-71
2022/03/20 04:29:56;;;;;;;;;;;2.30;99.90;;;;;;5124321;28;19955;-71
2022/03/20 04:32:30;;;;;;;;;;;2.30;99.90;;;;;;5125015;28;19919;-71
2022/03/20 04:34:59;;;;;;;;;;;2.20;99.90;;;;;;5124328;28;20111;-71
2022/03/20 04:37:27;;;;;;;;;;;2.20;99.90;;;;;;5124197;28;20093;-71
2022/03/20 04:39:56;;;;;;;;;;;2.30;99.90;;;;;;5124428;28;19920;-71
2022/03/20 04:42:28;;;;;;;;;;;2.20;99.90;;;;;;5124759;28;19926;-71
2022/03/20 04:44:58;;;;;;;;;;;2.20;99.90;;;;;;5124429;28;19986;-71
2022/03/20 04:58:32;;;;;;;;;;;2.20;99.90;;;;;;5114025;28;19938;-71
2022/03/20 05:01:00;;;;;;;;;;;2.20;99.90;;;;;;5122635;28;19962;-71
2022/03/20 05:03:31;;;;;;;;;;;2.20;99.90;;;;;;5124264;28;19982;-70
2022/03/20 05:05:58;;;;;;;;;;;2.20;99.90;;;;;;5122031;28;19983;-71
2022/03/20 05:08:24;;;;;;;;;;;2.20;99.90;;;;;;5124125;28;19934;-71
2022/03/20 05:13:36;;;;;;;;;;;2.20;99.90;;;;;;5123922;28;20145;-71
2022/03/20 05:16:04;;;;;;;;;;;2.10;99.90;;;;;;5124147;28;20122;-70
2022/03/20 05:18:32;;;;;;;;;;;2.20;99.90;;;;;;5121479;28;20040;-71
2022/03/20 05:20:59;;;;;;;;;;;2.10;99.90;;;;;;5118524;28;19927;-71
2022/03/20 05:23:26;;;;;;;;;;;2.10;99.90;;;;;;5122208;28;19919;-71
2022/03/20 05:25:52;;;;;;;;;;;2.00;99.90;;;;;;5123546;28;19928;-71
2022/03/20 05:28:21;;;;;;;;;;;2.00;99.90;;;;;;5123241;28;19920;-71
2022/03/20 05:30:47;;;;;;;;;;;2.00;99.90;;;;;;5113660;28;19920;-71
2022/03/20 05:33:16;;;;;;;;;;;1.90;99.90;;;;;;5115754;28;19927;-71
2022/03/20 05:35:45;;;;;;;;;;;1.90;99.90;;;;;;5118179;28;19994;-71
2022/03/20 05:38:12;;;;;;;;;;;2.00;99.90;;;;;;5123644;28;19926;-71
2022/03/20 05:40:38;;;;;;;;;;;2.00;99.90;;;;;;5115964;28;19942;-71
2022/03/20 05:43:06;;;;;;;;;;;2.10;99.90;;;;;;5119568;28;19934;-71
2022/03/20 05:45:34;;;;;;;;;;;2.10;99.90;;;;;;5121085;28;20137;-71
2022/03/20 05:48:00;;;;;;;;;;;2.00;99.90;;;;;;5118343;28;20115;-71
2022/03/20 05:50:27;;;;;;;;;;;2.00;99.90;;;;;;5123724;28;19926;-71
2022/03/20 05:52:55;;;;;;;;;;;2.10;99.90;;;;;;5112277;28;19924;-71
2022/03/20 05:58:01;;;;;;;;;;;2.10;99.90;;;;;;5104171;28;19920;-71
2022/03/20 05:58:12;;;;;;;;;;;2.10;99.90;;;;;;5102307;28;19927;-73
2022/03/20 06:00:41;;;;;;;;;;;2.20;99.90;;;;;;5106413;28;19927;-73
2022/03/20 06:03:09;;;;;;;;;;;2.20;99.90;;;;;;5102646;28;19958;-73
2022/03/20 06:05:35;;;;;;;;;;;2.10;99.90;;;;;;5102557;28;20263;-71
2022/03/20 06:08:04;;;;;;;;;;;2.10;99.90;;;;;;5103164;28;20092;-71
2022/03/20 06:10:31;;;;;;;;;;;2.10;99.90;;;;;;5102816;28;19924;-73
2022/03/20 06:12:58;;;;;;;;;;;2.00;99.90;;;;;;5105361;28;19955;-71
2022/03/20 06:15:25;;;;;;;;;;;2.00;99.90;;;;;;5106369;28;19926;-72
2022/03/20 06:17:51;;;;;;;;;;;2.00;99.90;;;;;;5125356;28;19920;-73
2022/03/20 06:20:18;;;;;;;;;;;1.90;99.90;;;;;;5113822;28;19935;-71
2022/03/20 06:22:47;;;;;;;;;;;1.90;99.90;;;;;;5106800;28;19991;-71
2022/03/20 06:25:15;;;;;;;;;;;1.90;99.90;;;;;;5098801;28;20200;-73
2022/03/20 06:27:45;;;;;;;;;;;1.90;99.90;;;;;;5106866;28;19927;-71
2022/03/20 06:30:13;;;;;;;;;;;2.00;99.90;;;;;;5104648;28;19920;-73
2022/03/20 06:32:40;;;;;;;;;;;2.00;99.90;;;;;;5106623;28;19927;-73
2022/03/20 06:35:07;;;;;;;;;;;2.10;99.90;;;;;;5106727;28;19962;-73
2022/03/20 06:37:37;;;;;;;;;;;2.20;99.90;;;;;;5105904;28;19920;-71
2022/03/20 06:40:04;;;;;;;;;;;2.20;99.90;;;;;;5106313;28;19928;-74
2022/03/20 06:42:32;;;;;;;;;;;2.30;99.90;;;;;;5106549;28;19927;-74
2022/03/20 06:44:59;;;;;;;;;;;2.40;99.90;;;;;;5106638;28;19920;-74
2022/03/20 06:47:26;;;;;;;;;;;2.50;99.90;;;;;;5106344;28;20208;-74
2022/03/20 06:49:53;;;;;;;;;;;2.50;99.90;;;;;;5106398;28;19920;-73
2022/03/20 06:52:21;;;;;;;;;;;2.60;99.90;;;;;;5106374;28;20090;-74
2022/03/20 06:54:48;;;;;;;;;;;2.70;99.90;;;;;;5124619;28;19920;-74
2022/03/20 06:57:17;;;;;;;;;;;2.80;99.90;;;;;;5132842;27;19919;-73
2022/03/20 06:59:45;;;;;;;;;;;2.90;99.90;;;;;;5113042;28;19924;-74
2022/03/20 07:02:12;;;;;;;;;;;3.00;99.90;;;;;;5125436;27;19920;-74
2022/03/20 07:04:39;;;;;;;;;;;3.10;99.90;;;;;;5122022;28;19920;-74
2022/03/20 07:07:06;;;;;;;;;;;3.10;99.90;;;;;;5120804;27;19920;-74
2022/03/20 07:09:33;;;;;;;;;;;3.20;99.90;;;;;;5131861;27;19950;-74
2022/03/20 07:11:59;;;;;;;;;;;3.30;99.90;;;;;;5125709;28;20089;-74
2022/03/20 07:14:26;;;;;;;;;;;3.40;99.90;;;;;;5124910;28;19919;-74
2022/03/20 07:16:54;;;;;;;;;;;3.50;99.90;;;;;;5124033;28;19920;-74
2022/03/20 07:19:22;;;;;;;;;;;3.60;99.90;;;;;;5124245;28;19926;-74
2022/03/20 07:21:48;;;;;;;;;;;3.60;99.90;;;;;;5123177;27;19979;-74
2022/03/20 07:24:17;;;;;;;;;;;3.80;99.90;;;;;;5107059;28;20281;-74
2022/03/20 07:29:30;;;;;;;;;;;4.00;99.90;;;;;;5126213;28;19922;-74
2022/03/20 07:31:58;;;;;;;;;;;4.10;99.90;;;;;;5126941;27;19919;-74
2022/03/20 07:34:25;;;;;;;;;;;4.20;99.90;;;;;;5136710;27;19920;-73
2022/03/20 07:36:52;;;;;;;;;;;4.30;99.90;;;;;;5123243;28;19920;-74
2022/03/20 07:39:18;;;;;;;;;;;4.40;99.90;;;;;;5125457;28;19955;-74
2022/03/20 07:41:45;;;;;;;;;;;4.50;99.90;;;;;;5124163;28;19926;-73
2022/03/20 07:44:12;;;;;;;;;;;4.50;99.90;;;;;;5132593;27;19955;-74
2022/03/20 07:46:40;;;;;;;;;;;4.60;99.90;;;;;;5131117;27;19983;-74
2022/03/20 07:49:09;;;;;;;;;;;4.70;99.90;;;;;;5127919;27;19945;-74
2022/03/20 07:51:36;;;;;;;;;;;4.80;99.90;;;;;;5124724;27;19942;-74
2022/03/20 07:54:02;;;;;;;;;;;4.90;99.90;;;;;;5134451;27;19927;-72
2022/03/20 07:56:34;;;;;;;;;;;5.00;99.90;;;;;;5130610;27;19919;-74
2022/03/20 07:59:01;;;;;;;;;;;5.10;99.90;;;;;;5130475;27;19919;-74
2022/03/20 08:01:28;;;;;;;;;;;5.20;99.90;;;;;;5128202;27;19927;-74
2022/03/20 08:03:56;;;;;;;;;;;5.30;99.90;;;;;;5129691;27;20195;-74
2022/03/20 08:06:24;;;;;;;;;;;5.40;99.90;;;;;;5125837;27;19928;-74
2022/03/20 08:08:50;;;;;;;;;;;5.40;99.90;;;;;;5131921;27;20175;-73
2022/03/20 08:11:42;;;;;;;;;;;5.40;99.90;;;;;;5124512;27;20132;-72
2022/03/20 08:14:09;;;;;;;;;;;5.50;99.90;;;;;;5126723;27;19920;-74
2022/03/20 08:16:39;;;;;;;;;;;5.60;99.90;;;;;;5123272;27;19927;-74
2022/03/20 08:19:07;;;;;;;;;;;5.70;99.90;;;;;;5132803;27;19942;-72
2022/03/20 08:21:35;;;;;;;;;;;5.80;99.90;;;;;;5130428;27;19957;-74
2022/03/20 08:24:02;;;;;;;;;;;5.90;99.90;;;;;;5135697;27;20092;-74
2022/03/20 08:26:30;;;;;;;;;;;6.00;99.90;;;;;;5130304;27;19978;-72
2022/03/20 08:28:59;;;;;;;;;;;6.00;99.90;;;;;;5122283;27;19919;-71
2022/03/20 08:31:25;;;;;;;;;;;6.10;99.90;;;;;;5127910;27;19958;-74
2022/03/20 08:33:52;;;;;;;;;;;6.20;99.90;;;;;;5135365;27;19933;-71
2022/03/20 08:36:18;;;;;;;;;;;6.30;99.90;;;;;;5125876;27;20208;-73
2022/03/20 08:38:46;;;;;;;;;;;6.40;99.90;;;;;;5131899;27;19987;-74
2022/03/20 08:41:13;;;;;;;;;;;6.50;99.90;;;;;;5127492;27;19926;-74
2022/03/20 08:43:40;;;;;;;;;;;6.60;99.90;;;;;;5121560;27;20211;-72
2022/03/20 08:46:06;;;;;;;;;;;6.60;99.90;;;;;;5129183;27;19933;-74
2022/03/20 08:48:33;;;;;;;;;;;6.70;99.90;;;;;;5131839;27;19923;-74
2022/03/20 08:50:59;;;;;;;;;;;6.70;99.90;;;;;;5135332;27;20167;-71
2022/03/20 08:53:26;;;;;;;;;;;6.80;99.90;;;;;;5147230;22;19934;-70
2022/03/20 08:55:54;;;;;;;;;;;6.80;99.90;;;;;;5165464;27;20200;-69
2022/03/20 08:58:20;;;;;;;;;;;6.90;99.90;;;;;;5165726;27;19919;-70
2022/03/20 09:00:48;;;;;;;;;;;7.00;99.90;;;;;;5163609;27;20206;-71
2022/03/20 09:03:14;;;;;;;;;;;7.10;99.90;;;;;;5166299;27;20110;-69
2022/03/20 09:05:41;;;;;;;;;;;7.20;99.90;;;;;;5186139;27;19925;-70
2022/03/20 09:08:08;;;;;;;;;;;7.30;99.90;;;;;;5185038;27;19978;-70
2022/03/20 09:10:35;;;;;;;;;;;7.40;99.90;;;;;;5185611;27;19925;-70
2022/03/20 09:13:03;;;;;;;;;;;7.60;99.90;;;;;;5182755;27;20210;-70
2022/03/20 09:15:30;;;;;;;;;;;7.60;99.90;;;;;;5185496;27;19949;-70
2022/03/20 09:20:41;;;;;;;;;;;7.80;99.90;;;;;;5180922;27;20114;-70
2022/03/20 09:23:09;;;;;;;;;;;7.80;99.90;;;;;;5186420;27;20217;-69
2022/03/20 09:25:36;;;;;;;;;;;7.90;99.90;;;;;;5186765;27;19925;-70
2022/03/20 09:28:05;;;;;;;;;;;8.00;99.90;;;;;;5186734;27;19923;-70
2022/03/20 09:30:32;;;;;;;;;;;8.10;99.90;;;;;;5178816;27;19926;-70
2022/03/20 09:33:01;;;;;;;;;;;8.30;99.90;;;;;;5186584;27;19942;-71
2022/03/20 09:35:28;;;;;;;;;;;8.30;99.90;;;;;;5185939;27;19922;-70
2022/03/20 09:37:54;;;;;;;;;;;8.50;99.90;;;;;;5174674;27;19925;-70
2022/03/20 09:40:22;;;;;;;;;;;8.60;99.90;;;;;;5179794;27;20228;-70
2022/03/20 09:42:48;;;;;;;;;;;8.70;99.90;;;;;;5186085;27;19971;-70
2022/03/20 09:45:17;;;;;;;;;;;8.80;99.90;;;;;;5186386;27;19946;-71
2022/03/20 09:47:44;;;;;;;;;;;8.90;99.90;;;;;;5186218;27;20280;-70
2022/03/20 09:50:11;;;;;;;;;;;9.00;99.90;;;;;;5186550;27;20252;-70
2022/03/20 09:52:39;;;;;;;;;;;9.10;99.90;;;;;;5186188;27;20198;-70
2022/03/20 09:55:06;;;;;;;;;;;9.20;99.90;;;;;;5182472;27;20111;-70
2022/03/20 09:57:33;;;;;;;;;;;9.30;99.90;;;;;;5172699;27;19931;-70
2022/03/20 10:00:01;;;;;;;;;;;9.30;99.90;;;;;;5179287;27;19919;-70
2022/03/20 10:02:30;;;;;;;;;;;9.40;99.90;;;;;;5183744;27;19919;-71
2022/03/20 10:04:57;;;;;;;;;;;9.50;99.90;;;;;;5179970;27;20177;-70
2022/03/20 10:07:24;;;;;;;;;;;9.60;99.90;;;;;;5184141;27;19918;-70
2022/03/20 10:10:06;;;;;;;;;;;9.70;99.90;;;;;;5182591;27;20205;-70
2022/03/20 10:12:34;;;;;;;;;;;9.80;99.90;;;;;;5178878;27;19925;-70
2022/03/20 10:15:02;;;;;;;;;;;9.90;99.90;;;;;;5178343;27;19953;-69
2022/03/20 10:17:30;;;;;;;;;;;10.00;99.90;;;;;;5185859;27;19919;-69
2022/03/20 10:19:57;;;;;;;;;;;10.10;99.90;;;;;;5184859;27;19923;-69
2022/03/20 10:22:25;;;;;;;;;;;10.30;99.90;;;;;;5186166;27;19918;-69
2022/03/20 10:24:52;;;;;;;;;;;10.40;99.90;;;;;;5185053;27;19923;-69
2022/03/20 10:27:34;;;;;;;;;;;10.50;99.90;;;;;;5186070;27;19918;-70
2022/03/20 10:30:01;;;;;;;;;;;10.60;99.90;;;;;;5170540;27;19937;-70
2022/03/20 10:32:28;;;;;;;;;;;10.80;99.90;;;;;;5185811;27;19926;-70
2022/03/20 10:34:56;;;;;;;;;;;10.90;99.90;;;;;;5185964;27;19919;-70
2022/03/20 10:37:40;;;;;;;;;;;11.10;99.90;;;;;;5182131;27;19998;-69
2022/03/20 10:40:10;;;;;;;;;;;11.20;99.90;;;;;;5178814;27;19925;-71
2022/03/20 10:42:37;;;;;;;;;;;11.40;99.90;;;;;;5164883;27;19919;-68
2022/03/20 10:45:04;;;;;;;;;;;11.50;99.90;;;;;;5183353;27;19925;-68
2022/03/20 10:47:31;;;;;;;;;;;11.60;99.90;;;;;;5185813;27;19925;-68
2022/03/20 10:50:04;;;;;;;;;;;11.70;99.90;;;;;;5185922;27;20177;-68
2022/03/20 10:52:32;;;;;;;;;;;11.80;99.90;;;;;;5153799;27;19919;-68
2022/03/20 10:54:59;;;;;;;;;;;12.00;99.90;;;;;;5156067;27;19919;-68
2022/03/20 10:57:31;;;;;;;;;;;12.10;99.90;;;;;;5163237;27;20261;-68
2022/03/20 11:00:05;;;;;;;;;;;12.30;99.90;;;;;;5149267;27;19919;-68
2022/03/20 11:02:32;;;;;;;;;;;12.40;99.90;;;;;;5165551;27;19927;-68
2022/03/20 11:04:58;;;;;;;;;;;12.50;99.90;;;;;;5168451;27;19919;-68
2022/03/20 11:07:27;;;;;;;;;;;12.60;99.90;;;;;;5169483;27;19928;-68
2022/03/20 11:09:55;;;;;;;;;;;12.80;99.90;;;;;;5170578;27;19957;-68
2022/03/20 11:12:24;;;;;;;;;;;12.90;99.90;;;;;;5168066;27;20225;-68
2022/03/20 11:14:50;;;;;;;;;;;13.00;99.90;;;;;;5163604;27;19919;-68
2022/03/20 11:17:20;;;;;;;;;;;13.10;99.50;;;;;;5161803;27;19954;-73
2022/03/20 11:19:50;;;;;;;;;;;13.10;99.70;;;;;;5168306;27;19926;-70
2022/03/20 11:22:19;;;;;;;;;;;13.30;99.20;;;;;;5168239;27;19919;-70
2022/03/20 11:24:47;;;;;;;;;;;13.30;98.90;;;;;;5167417;27;20231;-71
2022/03/20 11:27:18;;;;;;;;;;;13.40;98.40;;;;;;5167824;27;20860;-71
2022/03/20 11:29:48;;;;;;;;;;;13.50;97.70;;;;;;5157234;27;19919;-71
2022/03/20 11:35:25;;;;;;;;;;;13.90;97.90;;;;;;5165092;27;19952;-69
2022/03/20 11:37:54;;;;;;;;;;;14.00;97.80;;;;;;5160302;27;19923;-71
2022/03/20 11:44:02;;;;;;;;;;;14.20;97.00;;;;;;5079703;28;19928;-70
2022/03/20 11:46:33;;;;;;;;;;;14.40;96.70;;;;;;5109941;27;20218;-71
2022/03/20 11:49:18;;;;;;;;;;;14.60;97.00;;;;;;5153079;27;20165;-70
2022/03/20 11:54:53;;;;;;;;;;;15.00;95.70;;;;;;5142704;27;19978;-69
2022/03/20 11:57:51;;;;;;;;;;;15.20;94.60;;;;;;5162428;27;19919;-70
2022/03/20 12:04:04;;;;;;;;;;;15.30;93.40;;;;;;5028984;28;19925;-69
2022/03/20 12:06:45;;;;;;;;;;;15.20;92.60;;;;;;5158885;27;19919;-70
2022/03/20 12:09:20;;;;;;;;;;;15.20;92.60;;;;;;5163062;27;20102;-69
2022/03/20 12:12:04;;;;;;;;;;;15.20;92.60;;;;;;5146628;27;20208;-69
2022/03/20 12:14:33;;;;;;;;;;;15.20;93.70;;;;;;5146067;27;19920;-69
2022/03/20 12:17:02;;;;;;;;;;;15.30;92.50;;;;;;5152474;27;19919;-69
2022/03/20 12:19:41;;;;;;;;;;;15.60;93.30;;;;;;5149579;27;19926;-69
2022/03/20 12:22:29;;;;;;;;;;;15.80;91.90;;;;;;5160193;27;19918;-70
2022/03/20 12:24:57;;;;;;;;;;;16.00;91.70;;;;;;5139506;27;19922;-69
2022/03/20 12:27:43;;;;;;;;;;;16.20;91.10;;;;;;5160745;27;19919;-70
2022/03/20 12:30:28;;;;;;;;;;;16.30;91.40;;;;;;5152113;27;19931;-69
2022/03/20 12:32:57;;;;;;;;;;;16.50;90.20;;;;;;5148819;27;19920;-69
2022/03/20 12:35:24;;;;;;;;;;;16.60;90.00;;;;;;5157947;27;19919;-70
2022/03/20 12:37:53;;;;;;;;;;;16.60;90.40;;;;;;5166016;27;19926;-69
2022/03/20 12:40:20;;;;;;;;;;;16.60;89.30;;;;;;5162238;27;19919;-69
2022/03/20 12:42:55;;;;;;;;;;;16.60;90.40;;;;;;5166465;27;19926;-69
2022/03/20 12:45:21;;;;;;;;;;;16.70;90.90;;;;;;5154588;27;19919;-70
2022/03/20 12:47:58;;;;;;;;;;;16.90;86.00;;;;;;5152831;27;19927;-70
2022/03/20 12:50:26;;;;;;;;;;;16.90;87.60;;;;;;5160255;27;19919;-69
2022/03/20 12:53:03;;;;;;;;;;;17.00;90.90;;;;;;5162092;27;19923;-68
2022/03/20 12:55:30;;;;;;;;;;;17.20;88.30;;;;;;5161158;27;19941;-69
2022/03/20 12:57:57;;;;;;;;;;;17.10;87.70;;;;;;5152041;27;19945;-69
2022/03/20 13:00:25;;;;;;;;;;;17.20;89.30;;;;;;5167570;27;19923;-67
2022/03/20 13:02:58;;;;;;;;;;;17.30;88.10;;;;;;5165808;27;19926;-67
2022/03/20 13:05:25;;;;;;;;;;;17.40;88.00;;;;;;5165717;27;19919;-67
2022/03/20 13:07:53;;;;;;;;;;;17.30;84.20;;;;;;5166282;27;20235;-67
2022/03/20 13:10:23;;;;;;;;;;;17.10;83.70;;;;;;5149406;27;20202;-67
2022/03/20 13:12:51;;;;;;;;;;;17.10;85.00;;;;;;5161500;27;19919;-67
2022/03/20 13:15:24;;;;;;;;;;;17.20;84.00;;;;;;5157973;27;19919;-67
2022/03/20 13:17:50;;;;;;;;;;;17.30;84.10;;;;;;5166143;27;19921;-67
2022/03/20 13:20:18;;;;;;;;;;;17.20;84.60;;;;;;5160660;27;19919;-68
2022/03/20 13:22:44;;;;;;;;;;;16.90;82.50;;;;;;5143781;27;19919;-67
2022/03/20 13:25:14;;;;;;;;;;;16.70;84.10;;;;;;5176904;27;19919;-68
2022/03/20 13:27:46;;;;;;;;;;;16.60;84.40;;;;;;5161383;27;19919;-67
2022/03/20 13:30:13;;;;;;;;;;;16.70;85.80;;;;;;5164685;27;20203;-68
2022/03/20 13:32:41;;;;;;;;;;;17.00;84.40;;;;;;5156125;27;20240;-68
2022/03/20 13:35:08;;;;;;;;;;;17.10;82.20;;;;;;5165885;27;19926;-67
2022/03/20 13:37:34;;;;;;;;;;;17.00;82.10;;;;;;5165112;27;19920;-67
2022/03/20 13:40:01;;;;;;;;;;;17.10;82.90;;;;;;5163839;27;19919;-68
2022/03/20 13:42:29;;;;;;;;;;;17.30;84.70;;;;;;5144480;27;19919;-67
2022/03/20 13:44:57;;;;;;;;;;;17.40;79.00;;;;;;5158874;27;19919;-67
2022/03/20 13:47:25;;;;;;;;;;;17.40;81.90;;;;;;5154019;27;19927;-67
2022/03/20 13:49:53;;;;;;;;;;;17.60;81.40;;;;;;5153867;27;19923;-67
2022/03/20 13:52:28;;;;;;;;;;;17.90;80.60;;;;;;5165083;27;20136;-67
2022/03/20 13:55:01;;;;;;;;;;;17.80;78.90;;;;;;5165450;27;19919;-67
2022/03/20 13:57:30;;;;;;;;;;;17.40;77.50;;;;;;5157329;27;19919;-68
2022/03/20 13:59:59;;;;;;;;;;;17.10;78.80;;;;;;5165102;27;19919;-68
2022/03/20 14:02:25;;;;;;;;;;;16.90;76.50;;;;;;5158742;27;19985;-67
2022/03/20 14:04:55;;;;;;;;;;;16.70;76.80;;;;;;5163506;27;19963;-68
2022/03/20 14:07:23;;;;;;;;;;;16.70;79.90;;;;;;5161101;27;19957;-68
2022/03/20 14:09:51;;;;;;;;;;;16.90;78.90;;;;;;5165325;27;19947;-66
2022/03/20 14:12:22;;;;;;;;;;;17.10;78.30;;;;;;5165115;27;20146;-71
2022/03/20 14:14:51;;;;;;;;;;;17.10;76.80;;;;;;5152383;27;19919;-68
2022/03/20 14:17:19;;;;;;;;;;;16.90;75.70;;;;;;5164903;27;19919;-68
2022/03/20 14:19:46;;;;;;;;;;;16.80;78.50;;;;;;5156210;27;19919;-68
2022/03/20 14:22:13;;;;;;;;;;;16.90;76.70;;;;;;5164520;27;20218;-68
2022/03/20 14:24:44;;;;;;;;;;;16.90;76.20;;;;;;5162008;27;20245;-68
2022/03/20 14:27:10;;;;;;;;;;;16.90;75.70;;;;;;5163798;27;19931;-68
2022/03/20 14:40:55;;;;;;;;;;;17.90;74.60;;;;;;5168364;27;19929;-68
2022/03/20 14:43:24;;;;;;;;;;;17.70;74.50;;;;;;5153843;27;19919;-69
2022/03/20 14:45:54;;;;;;;;;;;17.20;74.10;;;;;;5147726;27;19920;-69
2022/03/20 14:48:22;;;;;;;;;;;16.80;74.70;;;;;;5165000;27;19927;-70
2022/03/20 14:50:50;;;;;;;;;;;16.60;75.40;;;;;;5163414;27;19919;-68
2022/03/20 14:53:21;;;;;;;;;;;16.30;75.50;;;;;;5168629;27;19919;-68
2022/03/20 14:55:49;;;;;;;;;;;16.30;77.50;;;;;;5158649;27;19919;-68
2022/03/20 14:58:16;;;;;;;;;;;16.30;76.30;;;;;;5162907;27;19919;-68
2022/03/20 15:00:43;;;;;;;;;;;16.40;76.30;;;;;;5152987;27;19919;-68
2022/03/20 15:03:09;;;;;;;;;;;16.60;77.30;;;;;;5157772;27;19919;-68
2022/03/20 15:05:37;;;;;;;;;;;16.60;76.30;;;;;;5161503;27;20118;-69
2022/03/20 15:13:32;;;;;;;;;;;16.30;76.40;;;;;;5164412;27;19982;-68
2022/03/20 15:15:59;;;;;;;;;;;16.40;76.30;;;;;;5168406;27;20160;-68
2022/03/20 15:18:25;;;;;;;;;;;16.20;75.60;;;;;;5166182;27;19919;-68
2022/03/20 15:20:54;;;;;;;;;;;16.10;76.40;;;;;;5150381;27;19920;-68
2022/03/20 15:23:21;;;;;;;;;;;16.10;76.10;;;;;;5149120;27;19926;-68
2022/03/20 15:25:48;;;;;;;;;;;16.10;76.70;;;;;;5163466;27;19926;-69
2022/03/20 15:28:14;;;;;;;;;;;16.00;77.50;;;;;;5163451;27;19919;-68
2022/03/20 15:30:41;;;;;;;;;;;16.20;76.70;;;;;;5163695;27;19926;-70